Time;durP1;ratioP1;P1;durP2;ratioP2;P2;SDS_P1;SDS_P2;PMS_P1;PMS_P2;Temp;Humidity;BMP_temperature;BMP_pressure;BME280_temperature;BME280_humidity;BME280_pressure;Samples;Min_cycle;Max_cycle;Signal;HPM_P1;HPM_P2
2023/12/06 00:03:46;;;;;;;36.17;21.67;;;4.60;99.90;;;;;;10450360;28;20288;-67
2023/12/06 00:08:53;;;;;;;34.63;21.63;;;4.60;99.90;;;;;;10452816;28;20196;-68
2023/12/06 00:13:57;;;;;;;39.37;22.10;;;4.60;99.90;;;;;;10448041;28;20761;-67
2023/12/06 00:19:00;;;;;;;38.00;23.23;;;4.50;99.90;;;;;;10449060;28;20203;-67
2023/12/06 00:24:07;;;;;;;37.53;23.27;;;4.50;99.90;;;;;;10453336;28;20216;-67
2023/12/06 00:29:11;;;;;;;41.23;23.40;;;4.50;99.90;;;;;;10450641;28;20252;-67
2023/12/06 00:34:14;;;;;;;41.07;24.33;;;4.40;99.90;;;;;;10445256;28;20221;-68
2023/12/06 00:39:19;;;;;;;41.50;23.67;;;4.40;99.90;;;;;;10447887;28;20323;-68
2023/12/06 00:44:23;;;;;;;36.57;22.87;;;4.30;99.90;;;;;;10451547;28;20230;-67
2023/12/06 00:49:27;;;;;;;38.03;22.73;;;4.30;99.90;;;;;;10446803;28;20725;-67
2023/12/06 00:54:32;;;;;;;38.30;22.90;;;4.30;99.90;;;;;;10441431;28;20233;-67
2023/12/06 00:59:36;;;;;;;33.87;20.67;;;4.30;99.90;;;;;;10443976;28;20236;-67
2023/12/06 01:04:39;;;;;;;30.00;18.37;;;4.30;99.90;;;;;;10450428;28;20227;-67
2023/12/06 01:09:44;;;;;;;25.87;17.70;;;4.20;99.90;;;;;;10442963;28;20916;-68
2023/12/06 01:14:48;;;;;;;28.53;17.97;;;4.20;99.90;;;;;;10406119;28;20288;-67
2023/12/06 01:19:52;;;;;;;27.67;18.20;;;4.20;99.90;;;;;;10448748;28;20215;-67
2023/12/06 01:24:59;;;;;;;31.57;17.73;;;4.20;99.90;;;;;;10448968;28;20656;-67
2023/12/06 01:30:04;;;;;;;30.20;19.33;;;4.20;99.90;;;;;;10437145;28;20202;-67
2023/12/06 01:35:15;;;;;;;31.63;18.67;;;4.20;99.90;;;;;;10442427;28;20224;-67
2023/12/06 01:40:20;;;;;;;31.97;17.57;;;4.20;99.90;;;;;;10445071;28;20665;-67
2023/12/06 01:45:23;;;;;;;28.63;16.50;;;4.20;99.90;;;;;;10445022;28;20230;-68
2023/12/06 01:50:28;;;;;;;28.83;17.20;;;4.10;99.90;;;;;;10443723;28;20689;-66
2023/12/06 01:55:34;;;;;;;29.50;18.30;;;4.00;99.90;;;;;;10443927;28;20196;-66
2023/12/06 02:00:37;;;;;;;29.83;17.40;;;4.00;99.90;;;;;;10445586;28;20220;-65
2023/12/06 02:05:42;;;;;;;34.07;19.43;;;4.00;99.90;;;;;;10443121;28;20216;-66
2023/12/06 02:10:47;;;;;;;34.63;18.83;;;3.90;99.90;;;;;;10441621;28;20251;-67
2023/12/06 02:15:52;;;;;;;30.17;17.47;;;4.00;99.90;;;;;;10438921;28;21719;-66
2023/12/06 02:20:58;;;;;;;28.23;17.37;;;4.00;99.90;;;;;;10449249;28;20222;-67
2023/12/06 02:26:04;;;;;;;29.10;17.20;;;3.90;99.90;;;;;;10439308;28;20273;-67
2023/12/06 02:31:07;;;;;;;30.07;17.87;;;3.80;99.90;;;;;;10441244;28;20362;-67
2023/12/06 02:36:12;;;;;;;28.87;18.03;;;3.80;99.90;;;;;;10445487;28;20604;-67
2023/12/06 02:41:19;;;;;;;30.40;19.13;;;3.80;99.90;;;;;;10440980;28;20292;-66
2023/12/06 02:46:24;;;;;;;34.73;20.17;;;3.80;99.90;;;;;;10441477;28;20219;-66
2023/12/06 02:51:28;;;;;;;39.13;20.87;;;3.80;99.90;;;;;;10441904;28;20224;-68
2023/12/06 02:56:33;;;;;;;34.47;21.13;;;3.80;99.90;;;;;;10444449;28;20223;-66
2023/12/06 03:01:36;;;;;;;35.40;21.87;;;3.90;99.90;;;;;;10441435;28;20698;-67
2023/12/06 03:06:40;;;;;;;35.00;21.73;;;3.90;99.90;;;;;;10441415;28;20292;-67
2023/12/06 03:11:45;;;;;;;33.80;21.70;;;3.90;99.90;;;;;;10439680;28;20284;-67
2023/12/06 03:16:50;;;;;;;32.60;19.90;;;4.00;99.90;;;;;;10441415;28;20204;-66
2023/12/06 03:21:54;;;;;;;36.37;22.07;;;4.00;99.90;;;;;;10441652;28;20222;-67
2023/12/06 03:26:59;;;;;;;36.63;23.33;;;4.00;99.90;;;;;;10448514;28;20304;-66
2023/12/06 03:32:03;;;;;;;34.60;23.43;;;4.00;99.90;;;;;;10454551;28;20220;-67
2023/12/06 03:37:06;;;;;;;40.63;24.73;;;3.90;99.90;;;;;;10454640;28;20224;-67
2023/12/06 03:42:12;;;;;;;37.17;22.63;;;3.90;99.90;;;;;;10453864;28;20220;-67
2023/12/06 03:47:15;;;;;;;40.20;25.00;;;3.90;99.90;;;;;;10459230;28;20218;-67
2023/12/06 03:52:19;;;;;;;43.17;26.33;;;4.00;99.90;;;;;;10450031;28;20254;-66
2023/12/06 03:57:24;;;;;;;42.23;26.50;;;4.00;99.90;;;;;;10453610;28;20202;-65
2023/12/06 04:02:28;;;;;;;43.23;27.23;;;4.10;99.90;;;;;;10463760;28;20234;-65
2023/12/06 04:07:32;;;;;;;42.87;27.00;;;4.10;99.90;;;;;;10463578;28;20226;-65
2023/12/06 04:12:37;;;;;;;43.37;27.83;;;4.10;99.90;;;;;;10452620;28;20756;-65
2023/12/06 04:17:41;;;;;;;43.30;28.73;;;4.10;99.90;;;;;;10464238;28;20256;-65
2023/12/06 04:22:45;;;;;;;45.37;29.10;;;4.10;99.90;;;;;;10460642;28;20222;-65
2023/12/06 04:27:50;;;;;;;41.47;27.97;;;4.00;99.90;;;;;;10455779;28;20277;-65
2023/12/06 04:32:53;;;;;;;44.27;28.90;;;3.90;99.90;;;;;;10448351;28;20254;-65
2023/12/06 04:37:57;;;;;;;44.37;29.40;;;3.90;99.90;;;;;;10453383;28;20200;-65
2023/12/06 04:43:02;;;;;;;45.43;30.03;;;3.80;99.90;;;;;;10447577;28;20649;-65
2023/12/06 04:48:06;;;;;;;46.90;30.27;;;3.80;99.90;;;;;;10437353;28;20219;-66
2023/12/06 04:53:10;;;;;;;45.07;30.20;;;3.80;99.90;;;;;;10447614;28;20223;-65
2023/12/06 04:58:15;;;;;;;44.33;29.97;;;3.80;99.90;;;;;;10450725;28;20203;-66
2023/12/06 05:03:19;;;;;;;42.37;30.30;;;3.80;99.90;;;;;;10448401;28;20231;-66
2023/12/06 05:08:23;;;;;;;42.57;29.03;;;3.90;99.90;;;;;;10455599;28;20277;-66
2023/12/06 05:13:28;;;;;;;45.73;30.67;;;3.90;99.90;;;;;;10456154;28;20266;-66
2023/12/06 05:18:32;;;;;;;44.17;29.23;;;3.90;99.90;;;;;;10455681;28;20193;-66
2023/12/06 05:23:36;;;;;;;39.43;28.50;;;3.90;99.90;;;;;;10455247;28;20227;-66
2023/12/06 05:28:41;;;;;;;40.30;28.83;;;3.90;99.90;;;;;;10455303;28;20278;-65
2023/12/06 05:33:44;;;;;;;42.73;29.73;;;3.90;99.90;;;;;;10454995;28;20228;-66
2023/12/06 05:38:48;;;;;;;42.77;28.47;;;4.00;99.90;;;;;;10455827;28;20204;-65
2023/12/06 05:43:53;;;;;;;41.57;28.43;;;4.00;99.90;;;;;;10454260;28;20226;-65
2023/12/06 05:48:56;;;;;;;44.60;31.23;;;4.00;99.90;;;;;;10454487;28;20222;-65
2023/12/06 05:54:00;;;;;;;44.60;31.20;;;4.00;99.90;;;;;;10453764;28;20275;-66
2023/12/06 05:59:05;;;;;;;47.10;32.13;;;4.10;99.90;;;;;;10454338;28;20216;-66
2023/12/06 06:04:09;;;;;;;45.73;31.10;;;4.20;99.90;;;;;;10453972;28;20229;-66
2023/12/06 06:09:13;;;;;;;46.13;31.77;;;4.20;99.90;;;;;;10455025;28;20220;-66
2023/12/06 06:14:19;;;;;;;48.13;32.97;;;4.20;99.90;;;;;;10440278;28;20225;-66
2023/12/06 06:19:22;;;;;;;48.20;32.13;;;4.20;99.90;;;;;;10430142;28;20601;-65
2023/12/06 06:24:26;;;;;;;49.20;32.73;;;4.20;99.90;;;;;;10453556;28;20217;-65
2023/12/06 06:29:31;;;;;;;46.90;30.73;;;4.20;99.90;;;;;;10452740;28;20710;-65
2023/12/06 06:34:35;;;;;;;44.93;30.80;;;4.20;99.90;;;;;;10451493;28;20227;-65
2023/12/06 06:39:41;;;;;;;48.03;30.90;;;4.20;99.90;;;;;;10452522;28;20540;-66
2023/12/06 06:44:47;;;;;;;44.00;28.93;;;4.20;99.90;;;;;;10452257;28;20223;-66
2023/12/06 06:49:58;;;;;;;45.97;30.27;;;4.20;99.90;;;;;;10451496;28;20234;-66
2023/12/06 06:55:02;;;;;;;42.37;29.70;;;4.20;99.90;;;;;;10452433;28;20226;-66
2023/12/06 07:00:09;;;;;;;41.27;28.23;;;4.20;99.90;;;;;;10451885;28;20251;-66
2023/12/06 07:05:13;;;;;;;41.23;28.43;;;4.20;99.90;;;;;;10452736;28;20219;-67
2023/12/06 07:10:17;;;;;;;43.17;27.37;;;4.20;99.90;;;;;;10437267;28;20219;-67
2023/12/06 07:15:23;;;;;;;40.27;26.63;;;4.30;99.90;;;;;;10412161;28;20212;-67
2023/12/06 07:20:28;;;;;;;36.53;26.33;;;4.30;99.90;;;;;;10410647;28;20262;-66
2023/12/06 07:25:46;;;;;;;37.33;26.00;;;4.30;99.90;;;;;;10410393;28;20210;-66
2023/12/06 07:30:52;;;;;;;37.67;26.90;;;4.30;99.90;;;;;;10410187;28;20228;-66
2023/12/06 07:35:55;;;;;;;33.50;24.80;;;4.40;99.90;;;;;;10419141;28;20197;-65
2023/12/06 07:41:02;;;;;;;34.77;24.50;;;4.40;99.90;;;;;;10452996;28;20219;-65
2023/12/06 07:46:10;;;;;;;36.17;24.07;;;4.40;99.90;;;;;;10447325;28;20201;-64
2023/12/06 07:51:15;;;;;;;37.17;24.07;;;4.40;99.90;;;;;;10448789;28;20623;-64
2023/12/06 07:56:19;;;;;;;33.37;23.90;;;4.40;99.90;;;;;;10444808;28;20197;-64
2023/12/06 08:01:28;;;;;;;39.43;32.10;;;4.40;99.90;;;;;;10453105;28;20440;-63
2023/12/06 08:06:34;;;;;;;37.07;25.87;;;4.50;99.90;;;;;;10448420;28;20708;-63
2023/12/06 08:11:38;;;;;;;37.97;26.30;;;4.50;99.90;;;;;;10459093;28;20253;-63
2023/12/06 08:16:44;;;;;;;37.90;25.97;;;4.60;99.90;;;;;;10458540;28;20211;-61
2023/12/06 08:21:47;;;;;;;37.77;26.27;;;4.60;99.90;;;;;;10458596;28;20232;-62
2023/12/06 08:26:51;;;;;;;36.57;25.43;;;4.60;99.90;;;;;;10458854;28;20202;-63
2023/12/06 08:31:59;;;;;;;36.73;26.63;;;4.60;99.90;;;;;;10458204;28;20292;-61
2023/12/06 08:37:02;;;;;;;38.07;26.23;;;4.60;99.90;;;;;;10466881;28;20205;-60
2023/12/06 08:42:07;;;;;;;38.53;27.40;;;4.60;99.90;;;;;;10450041;28;20212;-63
2023/12/06 08:47:12;;;;;;;35.70;25.20;;;4.70;99.90;;;;;;10455895;28;20925;-63
2023/12/06 08:52:16;;;;;;;34.20;24.93;;;4.70;99.90;;;;;;10455829;28;20234;-66
2023/12/06 08:57:20;;;;;;;35.67;26.63;;;4.80;99.90;;;;;;10458976;28;20193;-66
2023/12/06 09:02:25;;;;;;;39.20;27.57;;;4.90;99.90;;;;;;10453799;28;20736;-66
2023/12/06 09:07:29;;;;;;;36.77;26.93;;;4.90;99.90;;;;;;10458109;28;20229;-66
2023/12/06 09:12:33;;;;;;;33.13;26.23;;;4.90;99.90;;;;;;10451656;28;20286;-65
2023/12/06 09:17:38;;;;;;;34.77;25.47;;;5.00;99.90;;;;;;10453416;28;20676;-67
2023/12/06 09:22:43;;;;;;;37.60;26.43;;;5.00;99.90;;;;;;10458870;28;20266;-67
2023/12/06 09:27:46;;;;;;;32.10;24.73;;;5.00;99.90;;;;;;10453476;28;20252;-64
2023/12/06 09:32:54;;;;;;;31.97;23.80;;;5.00;99.90;;;;;;10453926;28;20229;-65
2023/12/06 09:37:58;;;;;;;30.83;23.60;;;5.10;99.90;;;;;;10450499;28;20205;-66
2023/12/06 09:43:03;;;;;;;31.50;24.07;;;5.10;99.90;;;;;;10452771;28;20221;-66
2023/12/06 09:48:08;;;;;;;31.83;24.67;;;5.10;99.90;;;;;;10451765;28;20218;-65
2023/12/06 09:53:13;;;;;;;30.83;24.00;;;5.10;99.90;;;;;;10452961;28;20275;-64
2023/12/06 09:58:19;;;;;;;33.57;24.77;;;5.10;99.90;;;;;;10453581;28;20232;-64
2023/12/06 10:03:24;;;;;;;28.67;22.53;;;5.20;99.90;;;;;;10450905;28;20233;-62
2023/12/06 10:08:28;;;;;;;27.10;23.30;;;5.20;99.90;;;;;;10455560;28;20217;-61
2023/12/06 10:13:33;;;;;;;26.93;21.53;;;5.30;99.90;;;;;;10451667;28;20221;-63
2023/12/06 10:18:39;;;;;;;24.60;20.83;;;5.30;99.90;;;;;;10447989;28;20224;-63
2023/12/06 10:23:53;;;;;;;21.77;19.10;;;5.30;99.90;;;;;;10453212;28;20221;-65
2023/12/06 10:28:57;;;;;;;21.97;18.03;;;5.30;99.90;;;;;;10448852;28;20218;-63
2023/12/06 10:34:03;;;;;;;19.93;17.70;;;5.30;99.90;;;;;;10450676;28;20283;-62
2023/12/06 10:39:11;;;;;;;20.43;18.27;;;5.30;99.90;;;;;;10450868;28;20254;-63
2023/12/06 10:44:14;;;;;;;17.43;15.63;;;5.40;99.90;;;;;;10449981;28;20221;-64
2023/12/06 10:49:20;;;;;;;19.50;16.20;;;5.40;99.90;;;;;;10449696;28;20216;-63
2023/12/06 10:54:26;;;;;;;16.20;14.60;;;5.30;99.90;;;;;;10449978;28;20288;-63
2023/12/06 10:59:31;;;;;;;17.87;16.00;;;5.40;99.90;;;;;;10445583;28;20196;-63
2023/12/06 11:04:41;;;;;;;18.37;15.90;;;5.40;99.90;;;;;;10447406;28;20229;-62
2023/12/06 11:09:53;;;;;;;20.13;17.90;;;5.40;99.90;;;;;;10453859;28;20371;-64
2023/12/06 11:15:20;;;;;;;23.67;18.97;;;5.40;99.90;;;;;;10456487;28;20663;-63
2023/12/06 11:20:25;;;;;;;27.40;20.87;;;5.40;99.90;;;;;;10452831;28;20566;-64
2023/12/06 11:25:29;;;;;;;25.83;21.50;;;5.50;99.90;;;;;;10449635;28;20666;-65
2023/12/06 11:30:34;;;;;;;31.37;23.87;;;5.50;99.90;;;;;;10446315;28;20225;-65
2023/12/06 11:35:44;;;;;;;30.63;23.90;;;5.50;99.90;;;;;;10450189;28;20658;-64
2023/12/06 11:40:52;;;;;;;28.57;23.47;;;5.60;99.90;;;;;;10452616;28;20262;-62
2023/12/06 11:46:02;;;;;;;29.20;23.97;;;5.60;99.90;;;;;;10458886;28;20204;-61
2023/12/06 11:51:08;;;;;;;34.37;24.43;;;5.70;99.90;;;;;;10460153;28;20270;-62
2023/12/06 11:56:12;;;;;;;29.17;23.10;;;5.70;99.90;;;;;;10456902;28;20206;-61
2023/12/06 12:01:16;;;;;;;26.37;21.67;;;5.80;99.90;;;;;;10460190;28;20611;-62
2023/12/06 12:06:23;;;;;;;26.33;22.13;;;5.80;99.90;;;;;;10460434;28;20214;-65
2023/12/06 12:11:28;;;;;;;30.77;22.07;;;5.80;99.90;;;;;;10458563;28;20252;-63
2023/12/06 12:16:32;;;;;;;26.73;21.50;;;5.80;99.90;;;;;;10456698;28;20199;-62
2023/12/06 12:21:37;;;;;;;28.73;21.77;;;5.80;99.90;;;;;;10459062;28;20229;-62
2023/12/06 12:26:43;;;;;;;25.17;20.93;;;5.70;99.90;;;;;;10455900;28;20201;-63
2023/12/06 12:31:47;;;;;;;25.27;20.53;;;5.70;99.90;;;;;;10456573;28;20221;-63
2023/12/06 12:36:52;;;;;;;24.73;20.37;;;5.80;99.90;;;;;;10455516;28;20685;-63
2023/12/06 12:41:56;;;;;;;26.53;20.33;;;5.80;99.90;;;;;;10455941;28;20700;-63
2023/12/06 12:47:00;;;;;;;24.33;20.13;;;5.80;99.90;;;;;;10448452;28;20206;-63
2023/12/06 12:52:10;;;;;;;27.47;20.30;;;5.80;99.90;;;;;;10451740;28;20641;-62
2023/12/06 12:57:14;;;;;;;27.07;19.67;;;5.80;99.90;;;;;;10451391;28;20594;-63
2023/12/06 13:02:18;;;;;;;22.13;18.07;;;5.80;99.90;;;;;;10458103;28;20658;-63
2023/12/06 13:07:23;;;;;;;21.80;18.03;;;5.80;99.90;;;;;;10454591;28;20217;-62
2023/12/06 13:12:27;;;;;;;20.53;16.27;;;5.80;99.90;;;;;;10452975;28;20278;-62
2023/12/06 13:17:31;;;;;;;19.57;17.20;;;5.90;99.90;;;;;;10452355;28;20224;-62
2023/12/06 13:22:36;;;;;;;19.30;16.53;;;5.90;99.90;;;;;;10449710;28;20687;-62
2023/12/06 13:27:40;;;;;;;22.10;17.67;;;5.90;99.90;;;;;;10450029;28;20200;-63
2023/12/06 13:32:44;;;;;;;23.93;17.60;;;5.90;99.90;;;;;;10450069;28;20681;-63
2023/12/06 13:37:49;;;;;;;23.77;17.77;;;5.90;99.90;;;;;;10455032;28;20248;-63
2023/12/06 13:42:56;;;;;;;23.80;18.20;;;6.00;99.90;;;;;;10455322;28;20887;-63
2023/12/06 13:48:05;;;;;;;21.23;18.17;;;6.00;99.90;;;;;;10457239;28;20210;-63
2023/12/06 13:53:34;;;;;;;23.33;17.40;;;6.00;99.90;;;;;;10458739;28;20278;-65
2023/12/06 13:58:39;;;;;;;19.77;17.03;;;6.00;99.90;;;;;;10447417;28;20256;-61
2023/12/06 14:03:43;;;;;;;24.17;17.17;;;6.00;99.90;;;;;;10459533;28;20226;-61
2023/12/06 14:08:48;;;;;;;18.97;16.33;;;6.10;99.90;;;;;;10454417;28;20657;-62
2023/12/06 14:13:52;;;;;;;19.97;16.00;;;6.10;99.90;;;;;;10460951;28;20327;-61
2023/12/06 14:18:56;;;;;;;20.13;16.80;;;6.10;99.90;;;;;;10453199;28;20203;-61
2023/12/06 14:24:01;;;;;;;20.00;17.43;;;6.10;99.90;;;;;;10453897;28;20272;-61
2023/12/06 14:29:05;;;;;;;25.23;19.10;;;6.10;99.90;;;;;;10451050;28;20668;-61
2023/12/06 14:34:10;;;;;;;21.73;17.50;;;6.20;99.90;;;;;;10449248;28;20898;-61
2023/12/06 14:39:17;;;;;;;20.10;16.33;;;6.20;99.90;;;;;;10443524;28;20202;-63
2023/12/06 14:44:21;;;;;;;20.07;17.00;;;6.30;99.90;;;;;;10448960;28;20269;-63
2023/12/06 14:49:24;;;;;;;20.77;15.93;;;6.30;99.90;;;;;;10455648;28;20244;-63
2023/12/06 14:54:31;;;;;;;19.97;15.73;;;6.30;99.90;;;;;;10447628;28;20669;-63
2023/12/06 14:59:36;;;;;;;19.83;15.20;;;6.30;99.90;;;;;;10448410;28;20248;-64
2023/12/06 15:04:39;;;;;;;22.63;15.47;;;6.20;99.90;;;;;;10449892;28;20230;-63
2023/12/06 15:09:44;;;;;;;20.60;15.73;;;6.20;99.90;;;;;;10444573;28;20733;-63
2023/12/06 15:14:50;;;;;;;20.63;16.07;;;6.20;99.90;;;;;;10442518;28;20225;-64
2023/12/06 15:19:53;;;;;;;19.90;16.13;;;6.20;99.90;;;;;;10445315;28;20264;-64
2023/12/06 15:24:59;;;;;;;24.90;16.60;;;6.20;99.90;;;;;;10446872;28;20236;-64
2023/12/06 15:30:03;;;;;;;22.80;17.20;;;6.20;99.90;;;;;;10450179;28;20296;-62
2023/12/06 15:35:09;;;;;;;22.20;16.50;;;6.20;99.90;;;;;;10450695;28;20218;-64
2023/12/06 15:40:15;;;;;;;20.30;16.53;;;6.20;99.90;;;;;;10446463;28;20207;-63
2023/12/06 15:45:21;;;;;;;19.67;15.20;;;6.20;99.90;;;;;;10445601;28;20256;-64
2023/12/06 15:50:25;;;;;;;21.63;15.77;;;6.20;99.90;;;;;;10442458;28;20210;-64
2023/12/06 15:55:30;;;;;;;18.90;15.00;;;6.20;99.90;;;;;;10447885;28;20256;-60
2023/12/06 16:00:34;;;;;;;21.13;14.97;;;6.10;99.90;;;;;;10445570;28;20592;-63
2023/12/06 16:05:38;;;;;;;21.77;15.57;;;6.10;99.90;;;;;;10452042;28;20214;-60
2023/12/06 16:10:43;;;;;;;26.08;20.58;;;6.20;99.90;;;;;;10450422;28;20452;-61
2023/12/06 16:15:49;;;;;;;19.53;15.80;;;6.20;99.90;;;;;;10450071;28;20248;-61
2023/12/06 16:21:06;;;;;;;21.37;15.53;;;6.30;99.90;;;;;;10440072;28;20567;-61
2023/12/06 16:26:12;;;;;;;22.27;15.30;;;6.30;99.90;;;;;;10451385;28;20573;-65
2023/12/06 16:31:16;;;;;;;20.50;14.90;;;6.30;99.90;;;;;;10454837;28;20222;-63
2023/12/06 16:36:20;;;;;;;18.17;14.03;;;6.30;99.90;;;;;;10451987;28;20224;-64
2023/12/06 16:41:25;;;;;;;18.93;13.20;;;6.20;99.90;;;;;;10454176;28;20222;-64
2023/12/06 16:46:28;;;;;;;19.10;14.07;;;6.20;99.90;;;;;;10459270;28;20202;-62
2023/12/06 16:51:32;;;;;;;18.93;13.83;;;6.20;99.90;;;;;;10453930;28;20226;-61
2023/12/06 16:56:38;;;;;;;21.17;15.47;;;6.10;99.90;;;;;;10453851;28;20248;-66
2023/12/06 17:01:43;;;;;;;19.30;14.33;;;6.10;99.90;;;;;;10458933;28;20240;-65
2023/12/06 17:06:46;;;;;;;20.83;14.53;;;6.10;99.90;;;;;;10456088;28;20267;-66
2023/12/06 17:11:52;;;;;;;21.67;14.97;;;6.10;99.90;;;;;;10453805;28;20702;-64
2023/12/06 17:16:56;;;;;;;19.57;15.57;;;6.00;99.90;;;;;;10457627;28;20998;-64
2023/12/06 17:21:59;;;;;;;20.77;14.87;;;6.00;99.90;;;;;;10455244;28;20221;-65
2023/12/06 17:27:05;;;;;;;21.53;13.93;;;5.90;99.90;;;;;;10446670;28;20338;-63
2023/12/06 17:32:09;;;;;;;19.97;14.43;;;5.90;99.90;;;;;;10445612;28;20227;-64
2023/12/06 17:37:17;;;;;;;21.57;14.93;;;5.90;99.90;;;;;;10422498;28;20250;-61
2023/12/06 17:42:22;;;;;;;20.83;14.60;;;5.90;99.90;;;;;;10398445;28;20279;-63
2023/12/06 17:47:26;;;;;;;21.80;13.83;;;5.90;99.90;;;;;;10451648;28;20267;-63
2023/12/06 17:52:31;;;;;;;20.57;14.03;;;5.90;99.90;;;;;;10442695;28;20230;-60
2023/12/06 17:57:37;;;;;;;21.03;14.27;;;5.90;99.90;;;;;;10449853;28;20210;-60
2023/12/06 18:02:41;;;;;;;18.93;14.23;;;5.90;99.90;;;;;;10451508;28;20272;-58
2023/12/06 18:07:44;;;;;;;19.47;15.00;;;5.90;99.90;;;;;;10459069;28;20211;-62
2023/12/06 18:12:49;;;;;;;19.57;15.00;;;5.90;99.90;;;;;;10454077;28;20724;-62
2023/12/06 18:17:53;;;;;;;19.40;14.57;;;5.90;99.90;;;;;;10456163;28;20690;-60
2023/12/06 18:22:57;;;;;;;19.37;14.87;;;5.90;99.90;;;;;;10467996;28;20574;-64
2023/12/06 18:28:02;;;;;;;23.07;15.87;;;5.90;99.90;;;;;;10453892;28;20214;-61
2023/12/06 18:33:05;;;;;;;20.63;16.03;;;5.90;99.90;;;;;;10453546;28;20288;-60
2023/12/06 18:38:09;;;;;;;19.60;14.60;;;5.90;99.90;;;;;;10455804;28;20248;-61
2023/12/06 18:43:14;;;;;;;25.13;17.80;;;5.90;99.90;;;;;;10452736;28;20685;-60
2023/12/06 18:48:18;;;;;;;28.10;17.47;;;5.90;99.90;;;;;;10414988;28;20253;-61
2023/12/06 18:53:22;;;;;;;21.00;15.63;;;5.80;99.90;;;;;;10433502;28;20665;-61
2023/12/06 18:58:27;;;;;;;23.23;15.37;;;5.80;99.90;;;;;;10439972;28;20573;-59
2023/12/06 19:03:30;;;;;;;19.23;14.57;;;5.80;99.90;;;;;;10451618;28;20256;-58
2023/12/06 19:08:35;;;;;;;21.17;15.37;;;5.80;99.90;;;;;;10450473;28;20211;-60
2023/12/06 19:13:40;;;;;;;20.27;15.60;;;5.80;99.90;;;;;;10446347;28;20284;-60
2023/12/06 19:18:44;;;;;;;20.87;14.80;;;5.80;99.90;;;;;;10448349;28;20232;-61
2023/12/06 19:23:47;;;;;;;20.30;14.87;;;5.80;99.90;;;;;;10408837;28;20244;-62
2023/12/06 19:28:53;;;;;;;36.20;23.57;;;5.80;99.90;;;;;;10443637;28;20200;-62
2023/12/06 19:33:57;;;;;;;19.13;14.87;;;5.80;99.90;;;;;;10443886;28;20225;-62
2023/12/06 19:39:01;;;;;;;20.93;15.63;;;5.80;99.90;;;;;;10380510;28;20234;-62
2023/12/06 19:44:07;;;;;;;18.17;14.93;;;5.70;99.90;;;;;;10438972;28;20653;-62
2023/12/06 19:49:10;;;;;;;22.60;15.37;;;5.80;99.90;;;;;;10419487;28;20209;-61
2023/12/06 19:54:14;;;;;;;20.83;15.57;;;5.80;99.90;;;;;;10444076;28;20289;-62
2023/12/06 19:59:19;;;;;;;22.37;15.40;;;5.80;99.90;;;;;;10443134;28;20197;-62
2023/12/06 20:04:23;;;;;;;24.20;17.53;;;5.80;99.90;;;;;;10445329;28;20230;-62
2023/12/06 20:09:27;;;;;;;24.70;18.40;;;5.80;99.90;;;;;;10449707;28;20614;-62
2023/12/06 20:14:34;;;;;;;19.93;14.97;;;5.80;99.90;;;;;;10449096;28;20320;-63
2023/12/06 20:19:37;;;;;;;17.27;15.37;;;5.80;99.90;;;;;;10453429;28;20203;-62
2023/12/06 20:24:42;;;;;;;19.33;15.00;;;5.80;99.90;;;;;;10451215;28;20226;-63
2023/12/06 20:29:47;;;;;;;19.57;14.57;;;5.80;99.90;;;;;;10455103;28;20220;-63
2023/12/06 20:34:50;;;;;;;16.10;13.53;;;5.90;99.90;;;;;;10450128;28;20218;-64
2023/12/06 20:39:54;;;;;;;15.63;13.73;;;5.90;99.90;;;;;;10454244;28;20661;-63
2023/12/06 20:44:59;;;;;;;15.10;13.50;;;5.90;99.90;;;;;;10450206;28;20600;-64
2023/12/06 20:50:03;;;;;;;16.10;13.50;;;5.90;99.90;;;;;;10449790;28;20198;-64
2023/12/06 20:55:08;;;;;;;15.30;13.67;;;5.80;99.90;;;;;;10447496;28;20231;-64
2023/12/06 21:00:14;;;;;;;15.53;13.87;;;5.80;99.90;;;;;;10451829;28;20203;-62
2023/12/06 21:05:17;;;;;;;19.43;14.57;;;5.80;99.90;;;;;;10446090;28;20677;-64
2023/12/06 21:10:21;;;;;;;17.10;14.23;;;5.70;99.90;;;;;;10441647;28;20211;-63
2023/12/06 21:15:26;;;;;;;15.97;14.33;;;5.70;99.90;;;;;;10444365;28;20902;-63
2023/12/06 21:20:30;;;;;;;16.07;14.37;;;5.70;99.90;;;;;;10452038;28;20209;-63
2023/12/06 21:25:34;;;;;;;19.20;15.67;;;5.70;99.90;;;;;;10448607;28;20202;-63
2023/12/06 21:30:39;;;;;;;17.13;14.93;;;5.60;99.90;;;;;;10447744;28;20267;-63
2023/12/06 21:35:42;;;;;;;37.87;24.63;;;5.60;99.90;;;;;;10450238;28;21035;-64
2023/12/06 21:40:46;;;;;;;25.70;20.97;;;5.60;99.90;;;;;;10447495;28;20226;-63
2023/12/06 21:45:51;;;;;;;27.10;22.23;;;5.60;99.90;;;;;;10448194;28;20206;-63
2023/12/06 21:50:55;;;;;;;17.80;15.07;;;5.60;99.90;;;;;;10447910;28;20226;-63
2023/12/06 21:55:59;;;;;;;20.00;17.83;;;5.50;99.90;;;;;;10446000;28;20322;-63
2023/12/06 22:01:04;;;;;;;23.30;16.27;;;5.50;99.90;;;;;;10449712;28;20247;-63
2023/12/06 22:06:09;;;;;;;17.87;16.07;;;5.50;99.90;;;;;;10450934;28;20219;-64
2023/12/06 22:11:14;;;;;;;18.17;16.20;;;5.40;99.90;;;;;;10446463;28;20225;-64
2023/12/06 22:16:19;;;;;;;17.23;15.33;;;5.40;99.90;;;;;;10449082;28;20792;-64
2023/12/06 22:21:23;;;;;;;18.13;16.17;;;5.40;99.90;;;;;;10444336;28;20796;-61
2023/12/06 22:26:26;;;;;;;18.70;15.77;;;5.30;99.90;;;;;;10446334;28;20258;-63
2023/12/06 22:31:33;;;;;;;18.97;15.57;;;5.30;99.90;;;;;;10442642;28;20785;-64
2023/12/06 22:36:36;;;;;;;17.73;15.80;;;5.20;99.90;;;;;;10442959;28;20734;-64
2023/12/06 22:41:40;;;;;;;19.23;16.80;;;5.20;99.90;;;;;;10445386;28;20217;-64
2023/12/06 22:46:45;;;;;;;20.47;16.73;;;5.10;99.90;;;;;;10447153;28;20607;-63
2023/12/06 22:51:49;;;;;;;20.53;16.83;;;5.10;99.90;;;;;;10443040;28;20230;-62
2023/12/06 22:56:53;;;;;;;19.77;17.23;;;5.00;99.80;;;;;;10452782;28;20226;-64
2023/12/06 23:01:58;;;;;;;20.73;16.50;;;5.00;99.80;;;;;;10445264;28;20271;-64
2023/12/06 23:07:02;;;;;;;19.53;17.33;;;5.00;99.80;;;;;;10442809;28;20734;-64
2023/12/06 23:12:08;;;;;;;23.63;17.40;;;4.90;99.80;;;;;;10448256;28;20220;-64
2023/12/06 23:17:13;;;;;;;20.30;16.77;;;4.90;99.70;;;;;;10439032;28;20271;-63
2023/12/06 23:22:17;;;;;;;19.00;17.00;;;4.90;99.60;;;;;;10443431;28;20251;-63
2023/12/06 23:27:21;;;;;;;19.17;16.90;;;4.80;99.60;;;;;;10424382;28;20202;-63
2023/12/06 23:32:26;;;;;;;22.10;17.07;;;4.80;99.40;;;;;;10445132;28;20227;-63
2023/12/06 23:37:29;;;;;;;28.77;21.53;;;4.80;99.30;;;;;;10440958;28;20217;-63
2023/12/06 23:42:33;;;;;;;32.93;22.33;;;4.70;99.50;;;;;;10456525;28;20719;-64
2023/12/06 23:47:38;;;;;;;33.40;23.13;;;4.70;99.70;;;;;;10451701;28;20251;-63
2023/12/06 23:52:42;;;;;;;61.40;27.17;;;4.70;99.80;;;;;;10451058;28;20223;-62
2023/12/06 23:57:45;;;;;;;38.50;26.63;;;4.70;99.90;;;;;;10455197;28;20751;-63
